Time;durP1;ratioP1;P1;durP2;ratioP2;P2;SDS_P1;SDS_P2;PMS_P1;PMS_P2;Temp;Humidity;BMP_temperature;BMP_pressure;BME280_temperature;BME280_humidity;BME280_pressure;Samples;Min_cycle;Max_cycle;Signal;HPM_P1;HPM_P2
2023/07/17 00:02:09;;;;;;;;;;;;;;;20.82;52.77;100591.84;5007263;28;7217;-72
2023/07/17 00:04:36;;;;;;;;;;;;;;;20.78;53.00;100590.06;4993144;28;7444;-73
2023/07/17 00:07:01;;;;;;;;;;;;;;;20.74;53.09;100585.66;4999913;28;7504;-73
2023/07/17 00:09:27;;;;;;;;;;;;;;;20.70;53.46;100576.09;4996634;28;6871;-73
2023/07/17 00:11:52;;;;;;;;;;;;;;;20.66;53.73;100583.84;5009284;28;7332;-73
2023/07/17 00:14:18;;;;;;;;;;;;;;;20.63;54.08;100581.25;4992048;28;6791;-73
2023/07/17 00:16:43;;;;;;;;;;;;;;;20.60;54.04;100589.03;5009462;28;6847;-72
2023/07/17 00:19:09;;;;;;;;;;;;;;;20.57;54.41;100591.63;4989213;28;6784;-73
2023/07/17 00:21:34;;;;;;;;;;;;;;;20.56;54.40;100600.25;4998500;28;7293;-73
2023/07/17 00:24:00;;;;;;;;;;;;;;;20.54;54.89;100613.28;4994194;28;6862;-74
2023/07/17 00:26:25;;;;;;;;;;;;;;;20.51;54.82;100607.16;4982458;28;7067;-72
2023/07/17 00:28:54;;;;;;;;;;;;;;;20.52;55.04;100621.91;4998834;28;7093;-73
2023/07/17 00:31:20;;;;;;;;;;;;;;;20.52;55.21;100615.00;4977323;28;7543;-72
2023/07/17 00:33:45;;;;;;;;;;;;;;;20.56;55.52;100630.63;4993131;28;6795;-73
2023/07/17 00:36:11;;;;;;;;;;;;;;;20.58;55.35;100645.44;4978340;28;6940;-73
2023/07/17 00:38:36;;;;;;;;;;;;;;;20.61;55.52;100650.66;4994374;28;7271;-73
2023/07/17 00:41:02;;;;;;;;;;;;;;;20.62;55.29;100609.88;4997999;28;7282;-74
2023/07/17 00:43:27;;;;;;;;;;;;;;;20.61;55.22;100582.97;4981564;28;6826;-73
2023/07/17 00:45:53;;;;;;;;;;;;;;;20.52;55.58;100585.47;5010459;28;6787;-73
2023/07/17 00:48:18;;;;;;;;;;;;;;;20.42;55.81;100607.06;5006744;28;7204;-73
2023/07/17 00:50:44;;;;;;;;;;;;;;;20.33;56.08;100613.03;4994530;28;7027;-72
2023/07/17 00:53:10;;;;;;;;;;;;;;;20.28;56.30;100612.13;5009161;28;7124;-72
2023/07/17 00:55:37;;;;;;;;;;;;;;;20.23;56.52;100619.88;4992390;28;6798;-74
2023/07/17 00:58:03;;;;;;;;;;;;;;;20.21;57.12;100613.78;4997783;28;6829;-74
2023/07/17 01:00:29;;;;;;;;;;;;;;;20.18;56.70;100624.13;4994443;28;7045;-72
2023/07/17 01:02:56;;;;;;;;;;;;;;;20.14;56.50;100623.25;4992782;28;11427;-72
2023/07/17 01:05:21;;;;;;;;;;;;;;;20.12;57.00;100625.81;4992532;28;7095;-73
2023/07/17 01:07:46;;;;;;;;;;;;;;;20.04;57.02;100623.97;4992465;28;6844;-73
2023/07/17 01:10:12;;;;;;;;;;;;;;;19.94;57.40;100616.06;5010913;28;6784;-73
2023/07/17 01:12:37;;;;;;;;;;;;;;;19.87;57.81;100614.22;5006892;28;6922;-72
2023/07/17 01:15:04;;;;;;;;;;;;;;;19.80;57.59;100613.25;4994510;28;6961;-72
2023/07/17 01:17:29;;;;;;;;;;;;;;;19.79;57.43;100615.81;5011047;28;6796;-73
2023/07/17 01:19:55;;;;;;;;;;;;;;;19.79;57.93;100623.63;5007842;28;7059;-75
2023/07/17 01:22:25;;;;;;;;;;;;;;;19.77;57.52;100618.41;5009937;28;6872;-74
2023/07/17 01:24:51;;;;;;;;;;;;;;;19.76;58.10;100628.81;4994168;28;7103;-73
2023/07/17 01:27:18;;;;;;;;;;;;;;;19.75;57.93;100634.81;5009067;28;6780;-73
2023/07/17 01:29:43;;;;;;;;;;;;;;;19.72;58.04;100630.47;4991653;28;7109;-73
2023/07/17 01:32:09;;;;;;;;;;;;;;;19.70;58.39;100617.44;5004266;28;7328;-72
2023/07/17 01:34:35;;;;;;;;;;;;;;;19.67;58.24;100622.63;4992121;28;6976;-72
2023/07/17 01:37:01;;;;;;;;;;;;;;;19.66;57.95;100628.66;5005510;28;7213;-72
2023/07/17 01:39:26;;;;;;;;;;;;;;;19.63;58.33;100641.59;5007944;28;6997;-73
2023/07/17 01:41:52;;;;;;;;;;;;;;;19.62;57.88;100636.41;5008616;28;6792;-74
2023/07/17 01:44:17;;;;;;;;;;;;;;;19.60;58.49;100643.28;4998215;28;7046;-75
2023/07/17 01:46:43;;;;;;;;;;;;;;;19.59;58.28;100641.53;4998190;28;6792;-74
2023/07/17 01:49:08;;;;;;;;;;;;;;;19.57;58.57;100637.19;5009284;28;7118;-74
2023/07/17 01:51:34;;;;;;;;;;;;;;;19.57;58.63;100629.41;4997634;28;6796;-73
2023/07/17 01:53:59;;;;;;;;;;;;;;;19.56;58.74;100632.00;4995687;28;6784;-74
2023/07/17 01:56:25;;;;;;;;;;;;;;;19.51;58.82;100629.31;5012723;28;6796;-74
2023/07/17 01:58:51;;;;;;;;;;;;;;;19.43;59.27;100618.78;4997769;28;6906;-75
2023/07/17 02:01:16;;;;;;;;;;;;;;;19.38;59.37;100615.28;4997409;28;7087;-73
2023/07/17 02:03:41;;;;;;;;;;;;;;;19.36;59.40;100610.88;5010096;28;6860;-72
2023/07/17 02:06:07;;;;;;;;;;;;;;;19.33;59.17;100616.06;5005328;28;6812;-71
2023/07/17 02:08:33;;;;;;;;;;;;;;;19.31;59.71;100620.31;5005116;28;6848;-72
2023/07/17 02:10:58;;;;;;;;;;;;;;;19.31;59.79;100621.22;4997144;28;6796;-72
2023/07/17 02:13:24;;;;;;;;;;;;;;;19.32;59.93;100627.31;5002459;28;7113;-74
2023/07/17 02:15:50;;;;;;;;;;;;;;;19.33;59.35;100621.25;5014592;28;7049;-72
2023/07/17 02:18:15;;;;;;;;;;;;;;;19.33;59.58;100616.06;5000975;28;7234;-74
2023/07/17 02:20:41;;;;;;;;;;;;;;;19.33;59.36;100605.66;5013143;28;6784;-72
2023/07/17 02:23:06;;;;;;;;;;;;;;;19.32;59.49;100609.09;4997022;28;6963;-74
2023/07/17 02:25:32;;;;;;;;;;;;;;;19.31;59.31;100617.72;4995852;28;7161;-72
2023/07/17 02:27:57;;;;;;;;;;;;;;;19.27;59.29;100622.88;4983880;28;7040;-71
2023/07/17 02:30:23;;;;;;;;;;;;;;;19.25;59.55;100616.78;4999118;28;8030;-72
2023/07/17 02:32:48;;;;;;;;;;;;;;;19.21;59.63;100614.97;4998886;28;6779;-71
2023/07/17 02:35:14;;;;;;;;;;;;;;;19.16;59.95;100619.25;5015350;28;6958;-71
2023/07/17 02:37:40;;;;;;;;;;;;;;;19.11;59.40;100620.88;4996268;28;6979;-71
2023/07/17 02:40:10;;;;;;;;;;;;;;;19.06;59.58;100625.16;5013023;28;6994;-71
2023/07/17 02:42:36;;;;;;;;;;;;;;;19.02;59.49;100626.81;4985866;28;7082;-71
2023/07/17 02:45:01;;;;;;;;;;;;;;;18.98;59.76;100632.78;4998398;28;7271;-71
2023/07/17 02:47:27;;;;;;;;;;;;;;;18.91;59.46;100636.97;4998137;28;6851;-69
2023/07/17 02:49:52;;;;;;;;;;;;;;;18.85;59.07;100631.69;5011271;28;7003;-71
2023/07/17 02:52:18;;;;;;;;;;;;;;;18.79;59.90;100634.16;5013103;28;6799;-70
2023/07/17 02:54:43;;;;;;;;;;;;;;;18.74;59.46;100642.75;4998835;28;6956;-68
2023/07/17 02:57:10;;;;;;;;;;;;;;;18.69;59.61;100639.19;5013503;28;6958;-71
2023/07/17 02:59:36;;;;;;;;;;;;;;;18.65;59.41;100639.09;5016140;28;7020;-70
2023/07/17 03:02:02;;;;;;;;;;;;;;;18.60;60.14;100642.50;5012254;28;7168;-71
2023/07/17 03:04:27;;;;;;;;;;;;;;;18.58;60.37;100648.50;4976546;28;7240;-70
2023/07/17 03:06:53;;;;;;;;;;;;;;;18.56;60.54;100647.59;5011705;28;7227;-69
2023/07/17 03:09:19;;;;;;;;;;;;;;;18.55;60.68;100648.47;5005545;28;6875;-68
2023/07/17 03:11:44;;;;;;;;;;;;;;;18.55;60.36;100656.25;5016441;28;6843;-71
2023/07/17 03:14:10;;;;;;;;;;;;;;;18.54;60.06;100654.47;5002077;28;6787;-69
2023/07/17 03:16:35;;;;;;;;;;;;;;;18.52;60.47;100651.88;5015444;28;6979;-69
2023/07/17 03:19:01;;;;;;;;;;;;;;;18.53;60.37;100656.22;4997028;28;7084;-69
2023/07/17 03:21:26;;;;;;;;;;;;;;;18.53;60.50;100658.81;5013190;28;6796;-68
2023/07/17 03:23:52;;;;;;;;;;;;;;;18.52;59.88;100656.16;5012114;28;6970;-70
2023/07/17 03:26:17;;;;;;;;;;;;;;;18.51;60.65;100652.72;4993936;28;6844;-69
2023/07/17 03:28:43;;;;;;;;;;;;;;;18.50;60.96;100650.97;5008292;28;6796;-70
2023/07/17 03:31:08;;;;;;;;;;;;;;;18.52;60.45;100656.16;5009285;28;6784;-72
2023/07/17 03:33:34;;;;;;;;;;;;;;;18.52;60.16;100648.38;4997669;28;6935;-72
2023/07/17 03:35:59;;;;;;;;;;;;;;;18.53;60.47;100657.91;4993107;28;6975;-69
2023/07/17 03:38:25;;;;;;;;;;;;;;;18.52;60.57;100659.66;5011444;28;6972;-69
2023/07/17 03:40:50;;;;;;;;;;;;;;;18.53;60.31;100663.09;4996431;28;6980;-69
2023/07/17 03:43:16;;;;;;;;;;;;;;;18.52;60.19;100661.34;4996789;28;6792;-70
2023/07/17 03:45:41;;;;;;;;;;;;;;;18.50;60.20;100670.84;5006309;28;7165;-68
2023/07/17 03:48:07;;;;;;;;;;;;;;;18.50;60.59;100678.63;4994120;28;6873;-70
2023/07/17 03:50:32;;;;;;;;;;;;;;;18.47;60.86;100669.06;5011664;28;6800;-69
2023/07/17 03:52:57;;;;;;;;;;;;;;;18.46;60.75;100663.00;5012629;28;7160;-71
2023/07/17 03:55:23;;;;;;;;;;;;;;;18.44;61.09;100663.81;4979359;28;6978;-69
2023/07/17 03:57:48;;;;;;;;;;;;;;;18.43;60.58;100662.06;4976306;28;7015;-71
2023/07/17 04:00:14;;;;;;;;;;;;;;;18.42;60.65;100676.75;5008285;28;6792;-68
2023/07/17 04:02:41;;;;;;;;;;;;;;;18.42;60.61;100670.69;4997297;28;6795;-71
2023/07/17 04:05:07;;;;;;;;;;;;;;;18.43;60.64;100677.63;5011147;28;6804;-70
2023/07/17 04:07:32;;;;;;;;;;;;;;;18.43;60.90;100681.09;4982869;28;6956;-67
2023/07/17 04:09:58;;;;;;;;;;;;;;;18.42;60.81;100689.72;5007301;28;6788;-71
2023/07/17 04:12:24;;;;;;;;;;;;;;;18.44;61.04;100697.53;4993509;28;6808;-68
2023/07/17 04:14:49;;;;;;;;;;;;;;;18.45;60.97;100688.91;4996455;28;7292;-71
2023/07/17 04:17:15;;;;;;;;;;;;;;;18.45;60.80;100684.63;4995142;28;7087;-70
2023/07/17 04:19:40;;;;;;;;;;;;;;;18.47;60.97;100697.59;4981750;28;6980;-69
2023/07/17 04:22:06;;;;;;;;;;;;;;;18.50;60.68;100696.78;4995752;28;6966;-69
2023/07/17 04:24:31;;;;;;;;;;;;;;;18.53;60.56;100694.25;4984353;28;7054;-69
2023/07/17 04:26:57;;;;;;;;;;;;;;;18.57;61.36;100696.94;5012031;28;6835;-68
2023/07/17 04:29:23;;;;;;;;;;;;;;;18.69;61.28;100696.31;5012819;28;6956;-71
2023/07/17 04:31:49;;;;;;;;;;;;;;;18.87;61.92;100695.75;4981894;28;6996;-68
2023/07/17 04:34:14;;;;;;;;;;;;;;;19.07;61.24;100710.00;4992600;28;6963;-68
2023/07/17 04:36:40;;;;;;;;;;;;;;;19.28;61.10;100706.91;5013775;28;6847;-69
2023/07/17 04:39:06;;;;;;;;;;;;;;;19.50;61.50;100704.66;5017030;28;6938;-70
2023/07/17 04:41:32;;;;;;;;;;;;;;;19.70;61.03;100699.75;4999781;28;6879;-71
2023/07/17 04:43:58;;;;;;;;;;;;;;;19.91;60.95;100708.75;5012930;28;6855;-71
2023/07/17 04:46:24;;;;;;;;;;;;;;;20.08;60.61;100699.47;4984793;28;7015;-71
2023/07/17 04:48:49;;;;;;;;;;;;;;;20.26;60.46;100708.38;4990119;28;6807;-72
2023/07/17 04:51:15;;;;;;;;;;;;;;;20.44;60.25;100715.56;5000495;28;7505;-71
2023/07/17 04:53:40;;;;;;;;;;;;;;;20.63;59.88;100721.00;5011307;28;7604;-71
2023/07/17 04:56:06;;;;;;;;;;;;;;;20.83;59.98;100723.84;5011477;28;7442;-73
2023/07/17 04:58:32;;;;;;;;;;;;;;;21.01;59.25;100727.50;5010676;28;6811;-72
2023/07/17 05:01:01;;;;;;;;;;;;;;;21.14;58.84;100728.50;4983606;28;7271;-71
2023/07/17 05:03:29;;;;;;;;;;;;;;;21.27;58.25;100730.34;4995798;28;6788;-72
2023/07/17 05:05:56;;;;;;;;;;;;;;;21.41;58.31;100727.84;5009416;28;6824;-71
2023/07/17 05:08:22;;;;;;;;;;;;;;;21.56;57.84;100726.25;4995446;28;6800;-72
2023/07/17 05:10:59;;;;;;;;;;;;;;;21.71;57.59;100725.53;4996097;28;7007;-72
2023/07/17 05:13:24;;;;;;;;;;;;;;;21.87;57.62;100719.50;4996531;28;6796;-71
2023/07/17 05:15:50;;;;;;;;;;;;;;;22.05;57.22;100726.59;5010802;28;6787;-72
2023/07/17 05:18:16;;;;;;;;;;;;;;;22.21;56.81;100734.50;4997979;28;7114;-72
2023/07/17 05:20:46;;;;;;;;;;;;;;;22.37;56.33;100730.25;5010323;28;6959;-72
2023/07/17 05:23:11;;;;;;;;;;;;;;;22.54;56.07;100735.56;4998093;28;7204;-72
2023/07/17 05:25:37;;;;;;;;;;;;;;;22.72;56.23;100733.88;5007517;28;6958;-72
2023/07/17 05:28:04;;;;;;;;;;;;;;;22.87;55.39;100733.91;4999743;28;6991;-72
2023/07/17 05:30:32;;;;;;;;;;;;;;;22.99;55.08;100735.69;4981407;28;7118;-72
2023/07/17 05:32:58;;;;;;;;;;;;;;;23.16;54.59;100735.69;5001402;28;6808;-72
2023/07/17 05:35:23;;;;;;;;;;;;;;;23.37;55.25;100741.88;4988689;28;7151;-72
2023/07/17 05:37:49;;;;;;;;;;;;;;;23.56;54.46;100739.22;5002396;28;7249;-72
2023/07/17 05:40:14;;;;;;;;;;;;;;;23.68;53.41;100739.25;5010602;28;6791;-72
2023/07/17 05:42:40;;;;;;;;;;;;;;;23.78;53.56;100749.69;4998457;28;6866;-71
2023/07/17 05:45:06;;;;;;;;;;;;;;;23.90;53.12;100748.78;5000915;28;7577;-71
2023/07/17 05:47:31;;;;;;;;;;;;;;;24.04;52.67;100740.91;5014030;28;7015;-72
2023/07/17 05:49:57;;;;;;;;;;;;;;;24.14;52.28;100753.13;4999177;28;6934;-72
2023/07/17 05:52:22;;;;;;;;;;;;;;;24.24;51.70;100751.38;5014152;28;6874;-72
2023/07/17 05:54:48;;;;;;;;;;;;;;;24.25;51.35;100746.13;5000099;28;7147;-72
2023/07/17 05:57:13;;;;;;;;;;;;;;;24.19;50.85;100759.22;5015266;28;6863;-72
2023/07/17 05:59:39;;;;;;;;;;;;;;;24.05;49.80;100763.66;5017214;28;7114;-72
2023/07/17 06:02:05;;;;;;;;;;;;;;;23.83;49.13;100766.25;4998888;28;6887;-72
2023/07/17 06:04:30;;;;;;;;;;;;;;;23.57;49.26;100768.00;4994022;28;6804;-72
2023/07/17 06:06:56;;;;;;;;;;;;;;;23.32;49.36;100774.97;5017537;28;6847;-72
2023/07/17 06:09:21;;;;;;;;;;;;;;;23.09;49.94;100765.34;5015421;28;6780;-73
2023/07/17 06:11:47;;;;;;;;;;;;;;;22.92;50.05;100772.25;4996978;28;6863;-73
2023/07/17 06:14:12;;;;;;;;;;;;;;;22.72;50.02;100775.69;5015359;28;6959;-72
2023/07/17 06:16:38;;;;;;;;;;;;;;;22.57;50.00;100779.97;5010788;28;7055;-72
2023/07/17 06:19:03;;;;;;;;;;;;;;;22.45;50.61;100779.88;5014530;28;6796;-72
2023/07/17 06:21:29;;;;;;;;;;;;;;;22.33;50.45;100781.56;4994688;28;7389;-72
2023/07/17 06:23:54;;;;;;;;;;;;;;;22.20;50.29;100780.63;4997443;28;6795;-72
2023/07/17 06:26:20;;;;;;;;;;;;;;;22.12;49.92;100797.13;4998853;28;6780;-72
2023/07/17 06:28:47;;;;;;;;;;;;;;;22.04;50.42;100786.59;5006514;28;6969;-72
2023/07/17 06:31:12;;;;;;;;;;;;;;;21.99;50.70;100789.19;5014754;28;6990;-72
2023/07/17 06:33:38;;;;;;;;;;;;;;;21.99;51.14;100796.16;4993664;28;6787;-72
2023/07/17 06:36:03;;;;;;;;;;;;;;;21.98;50.90;100786.59;5002317;28;6856;-72
2023/07/17 06:38:29;;;;;;;;;;;;;;;21.98;51.37;100790.06;5015317;28;6870;-72
2023/07/17 06:40:54;;;;;;;;;;;;;;;21.98;51.03;100791.81;5016712;28;6784;-72
2023/07/17 06:43:20;;;;;;;;;;;;;;;21.97;51.00;100795.25;5005720;28;7832;-72
2023/07/17 06:45:47;;;;;;;;;;;;;;;21.98;50.92;100803.09;5002073;28;6787;-72
2023/07/17 06:48:12;;;;;;;;;;;;;;;21.99;51.10;100811.81;5014173;28;7863;-72
2023/07/17 06:50:38;;;;;;;;;;;;;;;21.97;50.93;100803.97;5014550;28;6800;-72
2023/07/17 06:53:03;;;;;;;;;;;;;;;21.98;51.14;100803.09;5017101;28;7097;-72
2023/07/17 06:55:28;;;;;;;;;;;;;;;22.01;51.08;100810.09;5016708;28;6803;-73
2023/07/17 06:57:54;;;;;;;;;;;;;;;22.04;51.08;100816.19;5011128;28;7265;-72
2023/07/17 07:00:19;;;;;;;;;;;;;;;22.09;51.19;100823.19;5016081;28;6792;-72
2023/07/17 07:02:45;;;;;;;;;;;;;;;22.16;51.06;100818.03;4995584;28;7244;-73
2023/07/17 07:05:10;;;;;;;;;;;;;;;22.25;51.11;100813.72;4999030;28;6786;-72
2023/07/17 07:07:36;;;;;;;;;;;;;;;22.36;50.98;100813.78;5003227;28;6784;-73
2023/07/17 07:10:02;;;;;;;;;;;;;;;22.52;51.15;100815.66;4987096;28;7538;-72
2023/07/17 07:12:27;;;;;;;;;;;;;;;22.79;51.41;100819.25;4999661;28;6868;-72
2023/07/17 07:14:52;;;;;;;;;;;;;;;23.11;51.67;100814.97;5004227;28;6900;-72
2023/07/17 07:17:18;;;;;;;;;;;;;;;23.44;51.13;100822.06;4996674;28;6788;-72
2023/07/17 07:19:43;;;;;;;;;;;;;;;23.78;50.66;100826.44;4997576;28;7102;-72
2023/07/17 07:22:09;;;;;;;;;;;;;;;24.12;49.76;100815.97;4970536;28;6975;-72
2023/07/17 07:24:34;;;;;;;;;;;;;;;24.52;49.64;100820.22;4994573;28;7178;-73
2023/07/17 07:27:00;;;;;;;;;;;;;;;24.92;48.91;100828.88;5007639;28;6848;-73
2023/07/17 07:29:25;;;;;;;;;;;;;;;25.27;48.07;100824.31;4978929;28;6962;-72
2023/07/17 07:31:51;;;;;;;;;;;;;;;25.57;46.93;100825.00;4995446;28;6884;-73
2023/07/17 07:34:16;;;;;;;;;;;;;;;25.71;45.95;100830.13;5014828;28;6800;-72
2023/07/17 07:36:42;;;;;;;;;;;;;;;25.80;45.06;100822.19;4995274;28;6871;-73
2023/07/17 07:39:08;;;;;;;;;;;;;;;25.92;44.63;100826.44;5015565;28;6994;-73
2023/07/17 07:41:36;;;;;;;;;;;;;;;25.97;43.90;100824.66;4995572;28;6792;-72
2023/07/17 07:44:01;;;;;;;;;;;;;;;26.04;43.66;100831.59;4998489;28;6827;-73
2023/07/17 07:46:28;;;;;;;;;;;;;;;26.16;43.34;100832.34;5016347;28;7158;-73
2023/07/17 07:48:53;;;;;;;;;;;;;;;26.30;43.05;100834.88;4994076;28;6892;-73
2023/07/17 07:51:19;;;;;;;;;;;;;;;26.53;43.31;100833.72;4991604;28;7253;-73
2023/07/17 07:53:44;;;;;;;;;;;;;;;26.76;42.41;100833.44;4992959;28;6807;-72
2023/07/17 07:56:10;;;;;;;;;;;;;;;26.98;42.09;100839.34;5003301;28;7281;-71
2023/07/17 07:58:35;;;;;;;;;;;;;;;27.08;41.88;100839.22;4991757;28;6960;-72
2023/07/17 08:01:00;;;;;;;;;;;;;;;27.25;41.81;100842.47;4978454;28;7209;-72
2023/07/17 08:03:26;;;;;;;;;;;;;;;27.50;41.27;100838.59;5013411;28;7224;-72
2023/07/17 08:05:52;;;;;;;;;;;;;;;27.69;41.10;100833.94;4981260;28;7087;-72
2023/07/17 08:08:17;;;;;;;;;;;;;;;27.82;40.02;100839.88;5009224;28;7239;-72
2023/07/17 08:10:43;;;;;;;;;;;;;;;27.97;40.49;100849.25;4994583;28;7320;-72
2023/07/17 08:13:08;;;;;;;;;;;;;;;28.18;39.79;100848.00;5009044;28;6788;-72
2023/07/17 08:15:34;;;;;;;;;;;;;;;28.36;38.62;100849.44;4995573;28;6856;-72
2023/07/17 08:17:59;;;;;;;;;;;;;;;28.38;39.07;100845.00;4978242;28;7265;-72
2023/07/17 08:20:25;;;;;;;;;;;;;;;28.40;38.00;100852.91;4993201;28;6784;-72
2023/07/17 08:22:54;;;;;;;;;;;;;;;28.42;38.28;100846.72;5008894;28;6995;-72
2023/07/17 08:25:22;;;;;;;;;;;;;;;28.46;37.88;100857.19;4995365;28;6994;-72
2023/07/17 08:27:47;;;;;;;;;;;;;;;28.55;37.64;100857.00;4992106;28;6803;-72
2023/07/17 08:30:13;;;;;;;;;;;;;;;28.72;37.87;100848.75;4994296;28;7278;-72
2023/07/17 08:32:39;;;;;;;;;;;;;;;28.83;37.25;100851.19;5010522;28;7151;-72
2023/07/17 08:35:05;;;;;;;;;;;;;;;28.99;36.39;100851.72;5009956;28;6792;-72
2023/07/17 08:37:31;;;;;;;;;;;;;;;29.21;36.28;100856.50;4997861;28;6808;-72
2023/07/17 08:39:56;;;;;;;;;;;;;;;29.35;36.29;100857.09;5011846;28;6795;-72
2023/07/17 08:42:21;;;;;;;;;;;;;;;29.51;36.32;100859.41;4997421;28;7140;-72
2023/07/17 08:44:49;;;;;;;;;;;;;;;29.71;36.11;100858.91;5001834;28;8188;-72
2023/07/17 08:47:14;;;;;;;;;;;;;;;30.09;36.13;100850.94;5002117;28;7162;-72
2023/07/17 08:49:40;;;;;;;;;;;;;;;30.45;34.91;100847.31;5011102;28;6838;-73
2023/07/17 08:52:08;;;;;;;;;;;;;;;30.83;34.29;100848.00;4992968;28;6835;-72
2023/07/17 08:54:33;;;;;;;;;;;;;;;31.24;34.38;100855.63;4996451;28;7701;-72
2023/07/17 08:57:04;;;;;;;;;;;;;;;31.60;33.69;100851.84;4995626;28;6804;-72
2023/07/17 08:59:30;;;;;;;;;;;;;;;31.62;32.98;100863.25;4994453;28;7022;-73
2023/07/17 09:01:56;;;;;;;;;;;;;;;31.16;32.34;100854.97;4990450;28;6811;-72
2023/07/17 09:04:22;;;;;;;;;;;;;;;30.47;33.06;100862.25;4978522;28;6954;-72
2023/07/17 09:06:50;;;;;;;;;;;;;;;30.01;33.36;100874.88;5013620;28;6968;-71
2023/07/17 09:09:17;;;;;;;;;;;;;;;29.78;33.67;100870.16;4980661;28;6920;-74
2023/07/17 09:11:42;;;;;;;;;;;;;;;29.71;33.66;100873.88;5002828;28;7042;-73
2023/07/17 09:14:08;;;;;;;;;;;;;;;29.73;33.91;100869.44;5010695;28;6847;-71
2023/07/17 09:16:33;;;;;;;;;;;;;;;29.68;33.63;100871.31;4984571;28;6887;-71
2023/07/17 09:19:00;;;;;;;;;;;;;;;29.76;34.12;100870.22;5010855;28;6797;-71
2023/07/17 09:21:26;;;;;;;;;;;;;;;30.04;33.15;100872.16;4995512;28;6800;-71
2023/07/17 09:23:53;;;;;;;;;;;;;;;30.09;33.10;100873.84;5010434;28;7018;-71
2023/07/17 09:26:21;;;;;;;;;;;;;;;30.03;33.67;100870.41;5001233;28;7192;-71
2023/07/17 09:28:56;;;;;;;;;;;;;;;30.09;33.27;100876.47;5011773;28;7022;-71
2023/07/17 09:31:28;;;;;;;;;;;;;;;30.49;33.18;100864.81;4998125;28;7174;-71
2023/07/17 09:33:56;;;;;;;;;;;;;;;31.15;33.67;100867.31;5004056;28;6808;-72
2023/07/17 09:36:22;;;;;;;;;;;;;;;31.86;32.87;100858.03;4989849;28;6823;-71
2023/07/17 09:38:51;;;;;;;;;;;;;;;32.50;31.80;100859.38;4988138;28;7223;-71
2023/07/17 09:41:19;;;;;;;;;;;;;;;33.01;31.18;100856.59;5008970;28;7248;-71
2023/07/17 09:43:51;;;;;;;;;;;;;;;33.47;30.20;100858.38;5009117;28;6859;-71
2023/07/17 09:46:17;;;;;;;;;;;;;;;33.49;29.16;100856.50;4991916;28;6812;-71
2023/07/17 09:48:43;;;;;;;;;;;;;;;33.36;29.07;100859.63;4970656;28;7244;-71
2023/07/17 09:51:09;;;;;;;;;;;;;;;33.42;28.96;100863.84;4992395;28;6957;-71
2023/07/17 09:53:36;;;;;;;;;;;;;;;33.27;28.42;100862.66;5010900;28;7108;-71
2023/07/17 09:56:06;;;;;;;;;;;;;;;32.77;28.67;100853.94;4975534;28;6999;-71
2023/07/17 09:58:34;;;;;;;;;;;;;;;32.04;29.06;100861.88;4994324;28;6912;-71
2023/07/17 10:01:03;;;;;;;;;;;;;;;31.27;29.60;100871.41;4989998;28;6812;-71
2023/07/17 10:03:30;;;;;;;;;;;;;;;30.50;30.37;100877.13;5005643;28;6795;-71
2023/07/17 10:05:58;;;;;;;;;;;;;;;29.77;31.03;100874.59;4988365;28;6980;-70
2023/07/17 10:08:28;;;;;;;;;;;;;;;29.48;32.10;100877.94;5008215;28;7178;-71
2023/07/17 10:10:54;;;;;;;;;;;;;;;29.89;32.46;100881.34;5009830;28;6808;-71
2023/07/17 10:13:21;;;;;;;;;;;;;;;30.70;32.39;100868.66;4998702;28;7236;-71
2023/07/17 10:15:46;;;;;;;;;;;;;;;31.30;31.03;100849.28;5000792;28;7029;-70
2023/07/17 10:18:12;;;;;;;;;;;;;;;31.28;30.51;100874.91;4994978;28;7074;-71
2023/07/17 10:20:39;;;;;;;;;;;;;;;30.87;30.25;100867.31;4980657;28;7004;-70
2023/07/17 10:23:25;;;;;;;;;;;;;;;30.29;30.47;100866.25;4990874;28;7350;-71
2023/07/17 10:25:51;;;;;;;;;;;;;;;29.82;30.74;100870.97;4995277;28;6824;-70
2023/07/17 10:28:30;;;;;;;;;;;;;;;29.49;32.03;100874.38;4996953;28;6811;-71
2023/07/17 10:31:04;;;;;;;;;;;;;;;29.30;31.56;100868.66;4979409;28;7289;-71
2023/07/17 10:33:36;;;;;;;;;;;;;;;29.10;31.97;100865.53;5018608;28;6895;-71
2023/07/17 10:36:01;;;;;;;;;;;;;;;28.89;32.34;100866.91;4993788;28;7367;-70
2023/07/17 10:38:29;;;;;;;;;;;;;;;28.63;32.73;100872.66;5002771;28;6780;-73
2023/07/17 10:41:12;;;;;;;;;;;;;;;28.34;32.99;100869.72;4976595;28;8943;-74
2023/07/17 10:43:50;;;;;;;;;;;;;;;28.14;33.25;100878.81;4997157;28;6992;-73
2023/07/17 10:46:15;;;;;;;;;;;;;;;27.99;33.48;100873.81;4998013;28;7699;-74
2023/07/17 10:48:41;;;;;;;;;;;;;;;27.91;33.51;100878.31;4978838;28;6982;-73
2023/07/17 10:51:06;;;;;;;;;;;;;;;27.82;33.56;100874.97;5014853;28;6807;-72
2023/07/17 10:53:32;;;;;;;;;;;;;;;27.82;33.59;100874.97;5011277;28;6985;-75
2023/07/17 10:55:58;;;;;;;;;;;;;;;27.84;33.54;100878.44;4996068;28;7234;-74
2023/07/17 10:58:23;;;;;;;;;;;;;;;27.85;33.44;100871.41;4995965;28;6961;-74
2023/07/17 11:00:49;;;;;;;;;;;;;;;27.85;33.17;100882.81;5010495;28;6792;-74
2023/07/17 11:03:17;;;;;;;;;;;;;;;27.87;33.69;100880.16;4982902;28;8593;-73
2023/07/17 11:05:44;;;;;;;;;;;;;;;28.00;33.46;100880.81;5018552;28;6796;-75
2023/07/17 11:08:14;;;;;;;;;;;;;;;28.30;33.73;100873.31;4995018;28;6922;-73
2023/07/17 11:10:44;;;;;;;;;;;;;;;28.82;33.95;100875.81;4986423;28;7009;-75
2023/07/17 11:13:10;;;;;;;;;;;;;;;29.29;33.38;100880.97;4996364;28;7224;-73
2023/07/17 11:15:37;;;;;;;;;;;;;;;29.68;32.41;100882.75;5011744;28;6849;-74
2023/07/17 11:18:04;;;;;;;;;;;;;;;30.02;32.29;100876.59;4998395;28;6805;-74
2023/07/17 11:20:31;;;;;;;;;;;;;;;30.39;32.18;100864.22;4997300;28;6972;-73
2023/07/17 11:22:57;;;;;;;;;;;;;;;30.75;31.69;100876.47;5006976;28;6788;-73
2023/07/17 11:25:27;;;;;;;;;;;;;;;30.98;31.15;100872.25;5011979;28;6986;-73
2023/07/17 11:27:53;;;;;;;;;;;;;;;31.17;30.70;100868.13;5013836;28;6808;-74
2023/07/17 11:30:21;;;;;;;;;;;;;;;31.26;30.75;100867.03;4998017;28;6792;-71
2023/07/17 11:32:55;;;;;;;;;;;;;;;31.24;30.54;100870.63;4997502;28;6883;-74
2023/07/17 11:35:20;;;;;;;;;;;;;;;31.09;30.36;100869.31;5011252;28;6799;-74
2023/07/17 11:37:46;;;;;;;;;;;;;;;30.88;30.49;100861.94;5012002;28;6958;-74
2023/07/17 11:40:11;;;;;;;;;;;;;;;30.69;30.23;100868.69;4998595;28;6944;-74
2023/07/17 11:42:58;;;;;;;;;;;;;;;30.50;30.36;100866.53;4982491;28;7030;-74
2023/07/17 11:45:27;;;;;;;;;;;;;;;30.42;30.98;100873.81;4997823;28;7137;-74
2023/07/17 11:47:56;;;;;;;;;;;;;;;30.46;31.00;100865.75;4998585;28;6812;-72
2023/07/17 11:50:27;;;;;;;;;;;;;;;30.72;30.52;100856.25;5012688;28;6804;-74
2023/07/17 11:53:11;;;;;;;;;;;;;;;31.28;30.81;100853.72;4999141;28;6888;-73
2023/07/17 11:55:38;;;;;;;;;;;;;;;31.93;30.44;100848.97;5013790;28;7187;-72
2023/07/17 11:58:14;;;;;;;;;;;;;;;32.73;29.65;100839.06;4996040;28;7122;-74
2023/07/17 12:00:44;;;;;;;;;;;;;;;33.35;29.04;100836.66;4996344;28;6803;-73
2023/07/17 12:03:09;;;;;;;;;;;;;;;33.76;27.91;100832.38;5000568;28;7086;-73
2023/07/17 12:05:35;;;;;;;;;;;;;;;34.24;27.84;100822.34;5000400;28;6775;-73
2023/07/17 12:08:01;;;;;;;;;;;;;;;34.73;26.35;100815.72;4999738;28;7530;-72
2023/07/17 12:10:26;;;;;;;;;;;;;;;35.13;25.80;100811.16;5001439;28;6958;-74
2023/07/17 12:12:52;;;;;;;;;;;;;;;35.53;25.78;100813.59;5011357;28;6944;-74
2023/07/17 12:15:18;;;;;;;;;;;;;;;35.96;25.18;100810.53;5011609;28;7190;-74
2023/07/17 12:17:43;;;;;;;;;;;;;;;36.27;24.39;100808.06;4994046;28;6815;-74
2023/07/17 12:20:10;;;;;;;;;;;;;;;36.38;24.81;100808.34;4997982;28;6951;-72
2023/07/17 12:22:35;;;;;;;;;;;;;;;36.10;24.14;100801.84;5000061;28;8458;-73
2023/07/17 12:25:00;;;;;;;;;;;;;;;35.69;24.58;100804.84;4996147;28;6944;-73
2023/07/17 12:27:26;;;;;;;;;;;;;;;35.76;24.99;100802.72;4999402;28;6961;-74
2023/07/17 12:29:52;;;;;;;;;;;;;;;36.00;24.16;100792.56;4995527;28;6930;-73
2023/07/17 12:32:17;;;;;;;;;;;;;;;36.12;24.51;100805.31;4993288;28;7273;-74
2023/07/17 12:34:42;;;;;;;;;;;;;;;36.30;24.44;100807.91;4995924;28;7341;-73
2023/07/17 12:37:08;;;;;;;;;;;;;;;36.49;23.81;100806.88;4994193;28;6787;-73
2023/07/17 12:39:33;;;;;;;;;;;;;;;36.65;23.87;100809.59;4996671;28;6788;-72
2023/07/17 12:41:59;;;;;;;;;;;;;;;36.73;23.58;100809.19;4999906;28;8323;-74
2023/07/17 12:44:24;;;;;;;;;;;;;;;36.56;22.55;100792.28;4997060;28;7213;-71